Penasco, New Mexico
Current Conditions -  °F | °C
As of 5:35 AM on Friday 31 Oct 2014 (Local Time) from KSKX Reporting Station
Clear Clear  
Wind Chill: 28°   Ceiling: Unl
Heat Index: 28°   Visibility: 10mi
Dew Point: 10°   Wind: 0mph
Humidity: 47%   Direction: NA
Pressure: 30.44"   Gusts: NA
Location:  36.17°N, 105.69°W
Report Text: KSKX 311135Z AUTO 00000KT 10SM CLR M02/M12 A3044 RMK AO1
Loading
Personal Weather Stations






























Interactive Weather Map
Tropical Storm Tracking
New forecast layout! Learn more

10-Day Weather Forecast

Advertisements
Track Severe Weather on mobile